Time;durP1;ratioP1;P1;durP2;ratioP2;P2;SDS_P1;SDS_P2;PMS_P1;PMS_P2;Temp;Humidity;BMP_temperature;BMP_pressure;BME280_temperature;BME280_humidity;BME280_pressure;Samples;Min_cycle;Max_cycle;Signal;HPM_P1;HPM_P2
2021/12/04 00:00:41;;;;;;;13.18;11.82;;;;;;;3.40;96.82;99915.09;5133892;27;20027;-82
2021/12/04 00:03:07;;;;;;;12.27;10.90;;;;;;;3.39;96.94;99910.78;5133821;27;20054;-81
2021/12/04 00:05:33;;;;;;;13.13;11.57;;;;;;;3.34;96.87;99901.44;5134260;27;20444;-81
2021/12/04 00:07:58;;;;;;;13.80;11.77;;;;;;;3.38;97.29;99903.84;5133640;27;20034;-81
2021/12/04 00:10:28;;;;;;;11.93;10.82;;;;;;;3.49;96.86;99908.56;5134187;27;20038;-80
2021/12/04 00:12:54;;;;;;;11.45;10.38;;;;;;;3.44;96.35;99892.16;5115157;27;20122;-83
2021/12/04 00:15:19;;;;;;;11.60;10.35;;;;;;;3.46;97.17;99890.31;5134078;27;20023;-79
2021/12/04 00:17:45;;;;;;;11.38;10.32;;;;;;;3.35;96.56;99867.19;5133509;27;20034;-83
2021/12/04 00:20:11;;;;;;;11.80;10.70;;;;;;;3.47;96.34;99880.63;5133696;27;20474;-83
2021/12/04 00:22:37;;;;;;;11.25;10.13;;;;;;;3.46;97.07;99874.53;5133315;27;20020;-80
2021/12/04 00:25:07;;;;;;;12.57;9.90;;;;;;;3.45;96.68;99875.47;5133819;27;20465;-80
2021/12/04 00:27:33;;;;;;;11.48;10.38;;;;;;;3.37;96.66;99864.47;5114949;28;20035;-81
2021/12/04 00:29:58;;;;;;;10.35;9.45;;;;;;;3.34;96.12;99854.97;5132920;27;20038;-80
2021/12/04 00:32:36;;;;;;;11.20;10.02;;;;;;;3.37;97.09;99860.06;5133137;28;20469;-80
2021/12/04 00:35:11;;;;;;;11.25;9.93;;;;;;;3.45;96.73;99858.84;5115490;28;20027;-82
2021/12/04 00:51:18;;;;;;;11.55;10.55;;;;;;;3.49;96.11;99858.59;5131271;27;20406;-79
2021/12/04 00:53:43;;;;;;;12.98;11.80;;;;;;;3.44;96.14;99844.00;5134128;27;20037;-82
2021/12/04 00:56:09;;;;;;;10.85;9.82;;;;;;;3.46;96.68;99839.53;5137736;27;20466;-79
2021/12/04 00:58:34;;;;;;;12.52;11.50;;;;;;;3.46;96.59;99852.66;5137655;27;20050;-80
2021/12/04 01:01:00;;;;;;;13.20;11.65;;;;;;;3.42;96.52;99849.34;5136906;27;20027;-81
2021/12/04 01:03:25;;;;;;;13.60;11.27;;;;;;;3.42;96.74;99842.31;5137165;27;20033;-82
2021/12/04 01:05:51;;;;;;;13.50;12.10;;;;;;;3.44;96.59;99838.75;5137252;27;20051;-81
2021/12/04 01:08:17;;;;;;;13.38;12.18;;;;;;;3.56;96.82;99854.75;5137734;27;20102;-82
2021/12/04 01:10:42;;;;;;;12.80;11.70;;;;;;;3.53;96.55;99851.41;5118167;27;20063;-82
2021/12/04 01:13:11;;;;;;;13.00;11.80;;;;;;;3.53;96.98;99851.41;5137004;27;20175;-80
2021/12/04 01:15:43;;;;;;;13.63;12.43;;;;;;;3.47;96.28;99843.84;5137191;27;20069;-82
2021/12/04 01:18:10;;;;;;;12.95;11.75;;;;;;;3.56;96.10;99859.16;5118425;27;20046;-81
2021/12/04 01:20:36;;;;;;;12.68;11.43;;;;;;;3.52;96.24;99855.81;5137008;27;20487;-80
2021/12/04 01:23:02;;;;;;;13.82;12.50;;;;;;;3.55;96.30;99855.66;5118627;27;20058;-80
2021/12/04 01:25:28;;;;;;;13.23;12.02;;;;;;;3.37;96.69;99827.69;5118840;27;20039;-79
2021/12/04 01:27:53;;;;;;;13.52;12.40;;;;;;;3.59;96.38;99861.66;5118310;27;20038;-79
2021/12/04 01:30:19;;;;;;;12.70;11.55;;;;;;;3.62;95.84;99857.09;5136800;27;20066;-79
2021/12/04 01:32:44;;;;;;;12.88;11.77;;;;;;;3.58;96.99;99852.03;5118282;27;20497;-79
2021/12/04 01:35:10;;;;;;;13.23;12.13;;;;;;;3.53;96.39;99835.63;5136638;27;20396;-79
2021/12/04 01:37:35;;;;;;;12.65;11.45;;;;;;;3.62;96.69;99845.72;5117453;27;20092;-83
2021/12/04 01:40:01;;;;;;;12.05;11.05;;;;;;;3.61;96.70;99836.13;5136692;27;20110;-79
2021/12/04 01:42:27;;;;;;;11.55;10.55;;;;;;;3.53;96.65;99825.13;5136453;27;20030;-82
2021/12/04 01:44:53;;;;;;;12.05;11.05;;;;;;;3.58;96.40;99845.00;5117621;27;20504;-82
2021/12/04 01:47:20;;;;;;;12.15;11.05;;;;;;;3.63;96.40;99857.94;5136213;27;20023;-79
2021/12/04 01:49:48;;;;;;;12.10;11.00;;;;;;;3.57;96.40;99824.06;5118481;27;20054;-79
2021/12/04 01:52:17;;;;;;;12.02;10.93;;;;;;;3.63;96.60;99842.16;5136352;27;20049;-81
2021/12/04 01:54:42;;;;;;;11.48;10.48;;;;;;;3.67;96.43;99838.44;5118258;27;20107;-79
2021/12/04 01:57:07;;;;;;;12.60;11.40;;;;;;;3.57;96.24;99824.06;5135747;27;20038;-78
2021/12/04 01:59:33;;;;;;;12.07;11.02;;;;;;;3.65;96.63;99842.94;5117981;27;20026;-81
2021/12/04 02:01:58;;;;;;;13.20;12.00;;;;;;;3.60;96.61;99829.16;5136028;27;20019;-81
2021/12/04 02:04:24;;;;;;;12.20;11.05;;;;;;;3.55;96.19;99823.28;5136297;27;20102;-79
2021/12/04 02:06:50;;;;;;;12.27;11.18;;;;;;;3.55;96.44;99820.66;5117266;27;20099;-81
2021/12/04 02:09:15;;;;;;;13.10;11.82;;;;;;;3.62;96.77;99825.53;5136063;27;20027;-81
2021/12/04 02:11:40;;;;;;;12.90;11.80;;;;;;;3.60;96.12;99813.38;5116795;27;20100;-82
2021/12/04 02:14:06;;;;;;;12.43;11.30;;;;;;;3.70;96.23;99813.75;5135904;27;20027;-81
2021/12/04 02:16:32;;;;;;;12.48;11.30;;;;;;;3.64;96.31;99802.63;5135919;27;20034;-79
2021/12/04 02:18:58;;;;;;;12.30;11.27;;;;;;;3.68;96.11;99798.06;5136044;27;20042;-82
2021/12/04 02:21:23;;;;;;;13.02;11.82;;;;;;;3.68;95.96;99798.06;5136129;27;20027;-81
2021/12/04 02:23:49;;;;;;;13.60;12.40;;;;;;;3.67;96.32;99787.63;5136004;27;20022;-82
2021/12/04 02:26:14;;;;;;;13.93;12.63;;;;;;;3.58;96.29;99773.19;5135358;27;20031;-81
2021/12/04 02:28:46;;;;;;;13.82;12.52;;;;;;;3.50;96.45;99760.44;5117167;27;20030;-78
2021/12/04 02:31:12;;;;;;;13.02;11.75;;;;;;;3.57;96.20;99772.34;5134974;27;20361;-81
2021/12/04 02:33:38;;;;;;;13.20;11.95;;;;;;;3.67;96.29;99772.69;5134078;27;20035;-81
2021/12/04 02:36:06;;;;;;;12.90;11.77;;;;;;;3.58;96.11;99750.38;5117044;27;20023;-80
2021/12/04 02:38:33;;;;;;;12.85;11.68;;;;;;;3.64;96.18;99762.34;5127712;27;20015;-79
2021/12/04 02:41:00;;;;;;;13.23;11.73;;;;;;;3.70;96.49;99766.44;5135148;27;20038;-82
2021/12/04 02:43:27;;;;;;;13.80;12.38;;;;;;;3.69;95.93;99762.13;5135129;27;20031;-81
2021/12/04 02:45:52;;;;;;;12.82;11.73;;;;;;;3.62;96.06;99746.66;5135642;27;20118;-81
2021/12/04 02:48:18;;;;;;;13.02;11.82;;;;;;;3.57;96.08;99742.56;5135088;27;20114;-80
2021/12/04 02:50:44;;;;;;;13.38;12.18;;;;;;;3.60;96.07;99743.25;5135148;27;20023;-79
2021/12/04 02:53:10;;;;;;;13.73;12.27;;;;;;;3.66;95.95;99752.59;5135450;27;20038;-80
2021/12/04 02:55:36;;;;;;;12.80;11.70;;;;;;;3.64;96.09;99752.66;5134928;27;20031;-83
2021/12/04 02:58:01;;;;;;;13.45;12.18;;;;;;;3.63;96.48;99760.66;5134819;27;20419;-83
2021/12/04 03:00:27;;;;;;;13.52;12.13;;;;;;;3.63;96.17;99760.66;5134894;27;20034;-83
2021/12/04 03:02:55;;;;;;;13.63;12.35;;;;;;;3.49;96.55;99739.47;5135193;27;20031;-83
2021/12/04 03:05:24;;;;;;;14.48;11.70;;;;;;;3.54;96.34;99743.56;5135050;27;20377;-80
2021/12/04 03:07:55;;;;;;;12.57;11.38;;;;;;;3.64;96.17;99755.28;5135040;27;20042;-79
2021/12/04 03:10:21;;;;;;;12.73;11.52;;;;;;;3.66;96.26;99747.34;5134978;27;20023;-79
2021/12/04 03:12:47;;;;;;;12.38;11.18;;;;;;;3.60;95.74;99738.00;5134814;27;20484;-81
2021/12/04 03:15:13;;;;;;;12.82;11.52;;;;;;;3.66;95.62;99730.72;5115347;27;20129;-80
2021/12/04 03:17:39;;;;;;;12.85;11.70;;;;;;;3.69;95.75;99730.56;5111458;27;20058;-79
2021/12/04 03:20:06;;;;;;;12.15;11.02;;;;;;;3.68;95.96;99734.09;5114471;28;20019;-82
2021/12/04 03:22:32;;;;;;;11.57;10.48;;;;;;;3.70;95.72;99740.97;5145681;27;20051;-81
2021/12/04 03:24:58;;;;;;;11.27;10.18;;;;;;;3.69;95.86;99736.66;5124477;27;20483;-82
2021/12/04 03:27:26;;;;;;;10.30;9.30;;;;;;;3.70;96.36;99732.25;5132079;27;20373;-82
2021/12/04 03:30:05;;;;;;;10.65;9.75;;;;;;;3.62;95.95;99717.75;5134320;27;20034;-81
2021/12/04 03:32:53;;;;;;;9.85;9.00;;;;;;;3.67;95.78;99712.22;5134232;27;20027;-82
2021/12/04 03:40:53;;;;;;;9.50;8.70;;;;;;;3.67;95.67;99714.84;5125581;27;20038;-79
2021/12/04 03:43:18;;;;;;;8.68;7.97;;;;;;;3.68;95.71;99721.84;5115978;27;20035;-82
2021/12/04 03:45:46;;;;;;;8.98;8.20;;;;;;;3.59;95.93;99694.25;5134421;27;20477;-81
2021/12/04 03:50:57;;;;;;;8.35;7.75;;;;;;;3.64;95.37;99701.88;5134407;27;20031;-79
2021/12/04 03:53:23;;;;;;;7.90;7.30;;;;;;;3.66;95.60;99700.03;5133894;27;20026;-81
2021/12/04 03:55:50;;;;;;;8.55;7.85;;;;;;;3.68;95.93;99700.78;5116260;27;20098;-80
2021/12/04 03:58:15;;;;;;;8.82;7.97;;;;;;;3.69;95.49;99697.22;5134182;27;20030;-80
2021/12/04 04:00:41;;;;;;;8.60;7.88;;;;;;;3.52;95.39;99676.25;5114583;27;20031;-80
2021/12/04 04:03:07;;;;;;;8.18;7.57;;;;;;;3.66;95.88;99691.28;5134248;27;20378;-80
2021/12/04 04:05:32;;;;;;;8.05;7.35;;;;;;;3.62;95.67;99691.44;5132450;27;20041;-79
2021/12/04 04:07:57;;;;;;;7.25;6.65;;;;;;;3.66;95.82;99696.53;5134288;27;20032;-79
2021/12/04 04:10:23;;;;;;;6.95;6.45;;;;;;;3.63;96.08;99690.50;5131937;27;20039;-83
2021/12/04 04:12:48;;;;;;;7.40;6.80;;;;;;;3.72;95.70;99690.97;5133894;27;20023;-79
2021/12/04 04:15:15;;;;;;;6.82;6.22;;;;;;;3.61;95.33;99671.34;5134312;27;20027;-79
2021/12/04 04:17:43;;;;;;;7.82;7.03;;;;;;;3.74;95.98;99675.97;5133922;27;20023;-79
2021/12/04 04:20:12;;;;;;;7.22;6.63;;;;;;;3.79;95.75;99681.78;5132990;27;20023;-81
2021/12/04 04:22:37;;;;;;;7.30;6.70;;;;;;;3.76;95.40;99674.06;5133186;27;20026;-83
2021/12/04 04:25:03;;;;;;;6.60;6.10;;;;;;;3.77;94.86;99674.00;5132926;27;20102;-82
2021/12/04 04:27:28;;;;;;;7.18;6.53;;;;;;;3.73;95.11;99669.81;5132740;27;20415;-80
2021/12/04 04:29:54;;;;;;;6.90;6.40;;;;;;;3.57;95.17;99646.16;5131832;27;20019;-80
2021/12/04 04:32:19;;;;;;;6.60;6.10;;;;;;;3.69;95.22;99668.31;5133502;28;20026;-80
2021/12/04 04:34:51;;;;;;;6.95;6.40;;;;;;;3.75;95.79;99675.84;5133106;28;20110;-82
2021/12/04 05:12:17;;;;;;;6.25;5.75;;;;;;;3.79;95.41;99658.97;5133078;28;20038;-79
2021/12/04 05:14:44;;;;;;;6.03;5.53;;;;;;;3.68;95.54;99623.66;5132604;28;20028;-82
2021/12/04 05:17:27;;;;;;;6.63;6.03;;;;;;;3.77;95.11;99634.56;5133250;28;20030;-81
2021/12/04 05:19:54;;;;;;;5.78;5.38;;;;;;;3.77;95.06;99623.19;5132549;28;20103;-78
2021/12/04 05:22:20;;;;;;;6.45;5.95;;;;;;;3.85;95.46;99639.38;5132802;27;20110;-80
2021/12/04 05:24:45;;;;;;;6.13;5.63;;;;;;;3.77;94.86;99625.84;5131921;28;20488;-80
2021/12/04 05:27:11;;;;;;;6.03;5.53;;;;;;;3.75;94.90;99622.44;5133062;28;20019;-80
2021/12/04 05:29:37;;;;;;;6.05;5.55;;;;;;;3.85;94.92;99640.25;5113740;28;20423;-79
2021/12/04 05:32:05;;;;;;;5.25;4.85;;;;;;;3.78;95.01;99635.41;5132269;28;20034;-82
2021/12/04 05:34:31;;;;;;;5.45;5.05;;;;;;;3.81;94.85;99646.59;5132557;28;20026;-82
2021/12/04 05:36:57;;;;;;;6.18;5.68;;;;;;;3.79;95.09;99639.72;5133043;28;20071;-80
2021/12/04 05:39:22;;;;;;;5.78;5.28;;;;;;;3.82;95.47;99634.28;5132472;27;20023;-80
2021/12/04 05:41:48;;;;;;;5.30;4.82;;;;;;;3.80;94.98;99630.91;5136313;27;20088;-80
2021/12/04 05:44:15;;;;;;;5.80;5.40;;;;;;;3.82;95.14;99636.91;5114952;27;20443;-81
2021/12/04 05:47:05;;;;;;;6.07;5.45;;;;;;;3.83;95.83;99644.75;5103475;27;20500;-82
2021/12/04 05:49:36;;;;;;;6.53;6.03;;;;;;;3.85;95.10;99635.00;5119667;27;20394;-80
2021/12/04 05:57:06;;;;;;;5.90;5.40;;;;;;;3.85;95.28;99624.47;5136559;27;20027;-81
2021/12/04 05:59:31;;;;;;;6.28;5.68;;;;;;;3.88;95.07;99626.06;5135865;27;20027;-79
2021/12/04 06:01:57;;;;;;;6.63;5.93;;;;;;;3.86;95.21;99628.78;5135582;27;20072;-79
2021/12/04 06:04:22;;;;;;;6.50;6.00;;;;;;;3.88;95.05;99633.94;5136287;27;20462;-82
2021/12/04 06:06:48;;;;;;;6.70;6.10;;;;;;;3.83;95.14;99623.69;5135570;27;20077;-79
2021/12/04 06:09:13;;;;;;;6.30;5.78;;;;;;;3.82;94.50;99613.25;5136192;27;20031;-79
2021/12/04 06:11:39;;;;;;;6.45;5.85;;;;;;;3.90;94.83;99624.22;5135284;27;20106;-82
2021/12/04 06:14:05;;;;;;;6.60;6.10;;;;;;;3.87;95.05;99605.97;5135376;27;20039;-79
2021/12/04 06:16:31;;;;;;;6.82;6.13;;;;;;;3.91;95.27;99609.28;5136026;27;20023;-79
2021/12/04 06:18:58;;;;;;;5.90;5.50;;;;;;;3.79;94.85;99593.22;5135294;27;20638;-82
2021/12/04 06:24:08;;;;;;;6.50;5.90;;;;;;;3.91;94.53;99614.53;5124156;27;20068;-81
2021/12/04 06:26:35;;;;;;;6.78;6.18;;;;;;;3.85;95.24;99600.81;5135018;27;20023;-80
2021/12/04 06:29:01;;;;;;;6.57;6.00;;;;;;;3.87;94.81;99600.72;5135452;27;20042;-80
2021/12/04 06:31:27;;;;;;;6.22;5.75;;;;;;;3.87;95.07;99605.97;5134317;27;20101;-79
2021/12/04 06:33:53;;;;;;;6.32;5.70;;;;;;;3.90;95.29;99618.09;5116135;27;20039;-80
2021/12/04 06:36:21;;;;;;;6.60;5.95;;;;;;;3.94;94.61;99622.25;5133793;27;20027;-80
2021/12/04 06:38:46;;;;;;;7.78;6.00;;;;;;;3.90;95.25;99616.31;5135298;27;20419;-83
2021/12/04 06:41:12;;;;;;;6.28;5.78;;;;;;;3.93;94.80;99613.50;5135696;27;20035;-80
2021/12/04 06:43:40;;;;;;;6.15;5.57;;;;;;;3.90;94.83;99607.59;5135465;27;20026;-80
2021/12/04 06:46:08;;;;;;;6.55;6.00;;;;;;;3.99;95.02;99628.09;5104370;28;20494;-80
2021/12/04 06:48:43;;;;;;;6.40;5.90;;;;;;;4.01;94.86;99631.50;5131628;27;20030;-82
2021/12/04 06:53:46;;;;;;;6.82;6.18;;;;;;;3.98;94.62;99629.06;5138107;27;20099;-83
2021/12/04 06:56:12;;;;;;;5.80;5.40;;;;;;;3.96;94.39;99634.38;5117132;27;20064;-82
2021/12/04 06:58:39;;;;;;;6.72;6.18;;;;;;;3.95;95.11;99637.97;5134856;27;20027;-81
2021/12/04 07:01:08;;;;;;;6.15;5.65;;;;;;;3.94;94.84;99631.00;5135153;27;20038;-82
2021/12/04 07:03:34;;;;;;;7.20;6.60;;;;;;;3.96;94.58;99631.75;5116631;27;20034;-83
2021/12/04 07:05:59;;;;;;;6.85;6.25;;;;;;;3.92;94.80;99624.13;5134136;27;20039;-80
2021/12/04 07:08:25;;;;;;;6.13;5.60;;;;;;;3.95;94.62;99626.59;5134768;27;20100;-83
2021/12/04 07:10:50;;;;;;;6.80;6.20;;;;;;;3.87;94.44;99613.84;5150263;27;20473;-83
2021/12/04 07:13:17;;;;;;;6.72;6.10;;;;;;;3.92;95.31;99624.13;5134821;27;20031;-81
2021/12/04 07:15:45;;;;;;;7.65;6.95;;;;;;;3.92;94.99;99618.88;5116120;27;20055;-79
2021/12/04 07:18:11;;;;;;;6.90;6.30;;;;;;;3.79;95.49;99598.50;5134748;27;20026;-80
2021/12/04 07:20:36;;;;;;;8.65;6.50;;;;;;;3.75;94.69;99596.97;5134502;27;20474;-79
2021/12/04 07:23:02;;;;;;;7.05;6.45;;;;;;;3.91;94.61;99619.78;5134597;27;20027;-81
2021/12/04 07:25:27;;;;;;;7.43;6.82;;;;;;;3.97;94.82;99620.31;5116075;27;20373;-79
2021/12/04 07:27:53;;;;;;;6.85;6.25;;;;;;;3.99;95.18;99620.22;5134792;27;20381;-82
2021/12/04 07:30:19;;;;;;;6.72;6.03;;;;;;;3.92;95.22;99597.84;5132859;27;20019;-80
2021/12/04 07:32:45;;;;;;;6.72;6.13;;;;;;;3.99;95.43;99615.81;5115949;27;20083;-82
2021/12/04 07:35:11;;;;;;;7.40;6.65;;;;;;;4.00;95.33;99619.28;5134659;27;20079;-82
2021/12/04 07:37:36;;;;;;;6.85;6.25;;;;;;;3.98;95.71;99608.84;5115846;27;20050;-81
2021/12/04 07:40:03;;;;;;;6.93;6.20;;;;;;;3.96;95.00;99609.88;5115970;27;20022;-79
2021/12/04 07:42:28;;;;;;;7.25;6.55;;;;;;;4.01;94.46;99608.69;5133866;27;20031;-80
2021/12/04 07:44:54;;;;;;;7.30;6.70;;;;;;;4.09;95.43;99610.91;5134218;27;20027;-83
2021/12/04 07:47:19;;;;;;;7.50;6.80;;;;;;;4.05;95.18;99606.72;5134363;27;20085;-83
2021/12/04 07:49:45;;;;;;;6.63;6.13;;;;;;;3.99;94.45;99599.16;5134135;27;20039;-79
2021/12/04 07:52:11;;;;;;;7.75;6.95;;;;;;;4.03;94.04;99601.56;5115353;27;20030;-81
2021/12/04 07:54:36;;;;;;;7.05;6.35;;;;;;;4.02;94.90;99591.94;5134006;27;20025;-79
2021/12/04 07:57:03;;;;;;;7.13;6.45;;;;;;;4.07;94.08;99596.97;5134207;27;20544;-81
2021/12/04 07:59:29;;;;;;;6.63;6.10;;;;;;;4.04;94.67;99594.50;5134078;27;20030;-79
2021/12/04 08:01:55;;;;;;;6.82;6.22;;;;;;;4.16;94.91;99592.97;5134091;27;20470;-82
2021/12/04 08:04:21;;;;;;;6.88;6.28;;;;;;;4.14;94.33;99600.09;5133550;27;20496;-82
2021/12/04 08:06:46;;;;;;;7.47;6.78;;;;;;;4.14;94.02;99602.72;5133816;27;20047;-80
2021/12/04 08:09:12;;;;;;;7.85;7.15;;;;;;;4.07;94.21;99581.19;5133674;27;20019;-80
2021/12/04 08:11:39;;;;;;;7.65;6.68;;;;;;;4.14;94.12;99594.81;5133749;27;20038;-82
2021/12/04 08:14:04;;;;;;;7.10;6.43;;;;;;;4.16;94.62;99590.34;5114914;27;20122;-81
2021/12/04 08:16:34;;;;;;;7.07;6.47;;;;;;;4.06;94.54;99572.44;5114955;27;20566;-80
2021/12/04 08:18:59;;;;;;;7.88;7.18;;;;;;;4.12;94.44;99567.75;5133811;27;20079;-80
2021/12/04 08:21:26;;;;;;;10.00;6.75;;;;;;;4.15;94.51;99576.34;5115459;28;20038;-82
2021/12/04 08:23:51;;;;;;;8.23;7.43;;;;;;;4.16;94.44;99564.88;5133230;27;20468;-79
2021/12/04 08:26:17;;;;;;;7.68;6.97;;;;;;;4.08;94.60;99549.50;5133762;27;20027;-82
2021/12/04 08:28:43;;;;;;;7.75;7.05;;;;;;;4.15;94.67;99550.03;5133616;27;20057;-82
2021/12/04 08:31:09;;;;;;;8.25;7.47;;;;;;;4.21;95.03;99556.72;5133702;27;20031;-80
2021/12/04 08:33:35;;;;;;;7.82;6.97;;;;;;;4.25;94.10;99561.69;5133187;28;20475;-80
2021/12/04 08:36:03;;;;;;;7.85;7.18;;;;;;;4.28;94.36;99560.69;5133604;28;20076;-80
2021/12/04 08:38:28;;;;;;;7.05;6.50;;;;;;;4.29;94.48;99555.34;5133369;28;20068;-82
2021/12/04 08:40:54;;;;;;;7.43;6.72;;;;;;;4.25;94.51;99551.19;5133620;28;20038;-80
2021/12/04 08:43:19;;;;;;;7.72;7.03;;;;;;;4.23;93.81;99532.00;5133252;27;20448;-79
2021/12/04 08:45:45;;;;;;;7.93;7.00;;;;;;;4.27;94.35;99540.56;5133471;28;20123;-82
2021/12/04 08:48:12;;;;;;;7.38;6.78;;;;;;;4.29;94.82;99544.81;5133483;28;20058;-80
2021/12/04 08:50:39;;;;;;;8.48;7.68;;;;;;;4.27;94.46;99543.22;5115301;28;20034;-81
2021/12/04 08:53:06;;;;;;;7.60;7.00;;;;;;;4.29;94.06;99539.56;5133177;28;20114;-80
2021/12/04 08:55:35;;;;;;;7.72;7.03;;;;;;;4.26;94.49;99533.59;5133106;27;20496;-82
2021/12/04 08:58:01;;;;;;;7.10;6.50;;;;;;;4.25;95.11;99514.34;5133529;28;20529;-79
2021/12/04 09:00:37;;;;;;;6.90;6.32;;;;;;;4.31;94.58;99523.66;5133341;28;20102;-79
2021/12/04 09:03:04;;;;;;;7.57;7.07;;;;;;;4.37;94.19;99539.09;5114826;28;20083;-78
2021/12/04 09:05:30;;;;;;;6.53;5.93;;;;;;;4.33;94.78;99535.78;5132640;28;20465;-80
2021/12/04 09:07:57;;;;;;;8.82;7.38;;;;;;;4.38;93.67;99532.88;5114166;28;20047;-80
2021/12/04 09:10:22;;;;;;;7.85;7.18;;;;;;;4.37;93.87;99539.09;5133385;28;20027;-82
2021/12/04 09:12:49;;;;;;;8.35;7.65;;;;;;;4.40;93.92;99531.00;5131938;27;20031;-81
2021/12/04 09:15:18;;;;;;;8.52;7.05;;;;;;;4.31;93.75;99511.34;5115434;27;20035;-83
2021/12/04 09:17:43;;;;;;;7.90;7.07;;;;;;;4.49;93.93;99525.19;5118702;27;20023;-82
2021/12/04 09:20:11;;;;;;;8.40;7.57;;;;;;;4.43;93.53;99508.94;5137173;27;20534;-81
2021/12/04 09:22:37;;;;;;;8.10;7.30;;;;;;;4.51;93.54;99514.59;5136970;27;20466;-79
2021/12/04 09:25:06;;;;;;;9.32;8.50;;;;;;;4.50;93.59;99508.47;5136501;27;20034;-80
2021/12/04 09:27:56;;;;;;;9.20;7.60;;;;;;;4.47;92.96;99495.50;5137015;27;20374;-79
2021/12/04 09:30:50;;;;;;;10.52;8.02;;;;;;;4.59;93.26;99516.75;5136971;27;20114;-80
2021/12/04 10:00:41;;;;;;;10.05;8.85;;;;;;;4.60;92.96;99503.50;5132810;27;20084;-82
2021/12/04 10:33:13;;;;;;;13.27;10.93;;;;;;;4.60;93.75;99455.25;5133700;27;20035;-79
2021/12/04 10:35:39;;;;;;;11.05;9.20;;;;;;;4.54;93.14;99441.53;5134949;27;20484;-80
2021/12/04 10:38:07;;;;;;;11.70;9.88;;;;;;;4.66;93.45;99455.72;5135311;27;20011;-80
2021/12/04 10:40:39;;;;;;;10.63;9.48;;;;;;;4.66;93.13;99445.19;5134496;27;20027;-81
2021/12/04 10:43:12;;;;;;;11.70;9.13;;;;;;;4.71;93.35;99444.94;5135235;27;20027;-81
2021/12/04 10:45:52;;;;;;;11.00;9.55;;;;;;;4.65;92.89;99429.50;5129947;27;20053;-79
2021/12/04 10:48:23;;;;;;;13.27;10.32;;;;;;;4.69;93.13;99431.84;5134840;27;20046;-79
2021/12/04 10:50:59;;;;;;;;;;;;;;;4.82;93.23;99439.81;5134202;27;20027;-80
2021/12/04 10:53:33;;;;;;;13.13;10.27;;;;;;;4.77;92.94;99431.38;5116560;27;20365;-82
2021/12/04 11:04:10;;;;;;;12.05;9.77;;;;;;;4.70;92.82;99382.66;5134827;27;20031;-83
2021/12/04 11:26:47;;;;;;;9.57;8.60;;;;;;;4.88;92.50;99356.94;5134858;27;20039;-81
2021/12/04 11:44:58;;;;;;;11.45;9.13;;;;;;;5.05;92.80;99371.69;5091422;28;20108;-81
2021/12/04 11:47:34;;;;;;;10.20;9.25;;;;;;;4.93;91.87;99353.06;5090890;28;20563;-81
2021/12/04 11:49:59;;;;;;;11.32;8.90;;;;;;;5.01;92.17;99360.50;5090687;28;20028;-80
2021/12/04 11:52:25;;;;;;;12.48;10.30;;;;;;;5.01;92.24;99353.44;5090561;28;20026;-79
2021/12/04 11:54:56;;;;;;;10.43;9.43;;;;;;;5.01;91.94;99358.69;5090363;28;20115;-79
2021/12/04 11:57:31;;;;;;;11.18;9.48;;;;;;;4.96;92.15;99346.75;5087983;28;20115;-78
2021/12/04 12:00:28;;;;;;;11.40;10.13;;;;;;;4.97;92.85;99354.59;5088614;28;20031;-81
2021/12/04 12:03:05;;;;;;;11.27;10.18;;;;;;;5.03;92.62;99350.72;5089945;28;20048;-79
2021/12/04 12:05:30;;;;;;;11.73;10.63;;;;;;;4.97;92.96;99338.78;5090366;28;20039;-81
2021/12/04 12:07:58;;;;;;;11.13;10.02;;;;;;;5.01;93.07;99347.31;5103296;27;20042;-81
2021/12/04 12:10:50;;;;;;;11.40;10.20;;;;;;;5.04;92.76;99333.94;5132663;27;20519;-82
2021/12/04 12:13:24;;;;;;;10.23;9.10;;;;;;;4.87;93.32;99321.00;5113038;27;20039;-80
2021/12/04 12:15:58;;;;;;;10.68;9.68;;;;;;;5.04;92.97;99348.91;5132632;27;20500;-82
2021/12/04 12:18:24;;;;;;;10.85;9.80;;;;;;;4.97;93.26;99337.91;5117305;27;20023;-80
2021/12/04 12:20:53;;;;;;;12.07;10.85;;;;;;;4.95;93.86;99334.53;5133544;27;20021;-81
2021/12/04 12:23:23;;;;;;;11.82;10.02;;;;;;;4.94;93.68;99331.06;5114789;27;20021;-84
2021/12/04 12:26:17;;;;;;;12.52;9.73;;;;;;;5.01;93.23;99337.63;5115077;27;20134;-82
2021/12/04 12:37:13;;;;;;;14.15;10.32;;;;;;;4.98;94.48;99345.72;5106160;28;20035;-80
2021/12/04 12:39:54;;;;;;;13.25;10.95;;;;;;;4.71;95.00;99305.34;5109613;28;20062;-83
2021/12/04 12:42:34;;;;;;;12.65;10.93;;;;;;;4.90;95.30;99345.38;5108492;28;20040;-80
2021/12/04 12:45:17;;;;;;;12.65;11.32;;;;;;;4.89;95.48;99342.84;5111240;28;20023;-85
2021/12/04 12:47:57;;;;;;;13.70;12.32;;;;;;;4.95;95.10;99348.56;5099265;28;20028;-79
2021/12/04 12:50:53;;;;;;;16.80;12.60;;;;;;;4.96;95.56;99341.50;5106820;28;20031;-83
2021/12/04 12:53:30;;;;;;;15.48;13.75;;;;;;;4.93;96.24;99355.69;5097716;28;20198;-84
2021/12/04 12:56:08;;;;;;;19.67;16.70;;;;;;;4.86;96.55;99333.34;5106971;28;20093;-82
2021/12/04 12:58:43;;;;;;;19.08;16.65;;;;;;;4.87;96.19;99329.75;5113151;28;20039;-83
2021/12/04 13:12:54;;;;;;;21.58;18.77;;;;;;;4.91;97.09;99314.59;5010989;28;20037;-81
2021/12/04 13:15:39;;;;;;;23.00;20.23;;;;;;;4.95;96.48;99313.47;5013339;28;20444;-82
2021/12/04 13:18:10;;;;;;;21.00;18.70;;;;;;;5.01;96.42;99327.09;5013601;28;20034;-82
2021/12/04 13:20:36;;;;;;;20.77;18.58;;;;;;;4.99;95.78;99321.06;5025234;28;20025;-79
2021/12/04 13:23:12;;;;;;;21.95;18.10;;;;;;;4.97;96.24;99315.06;5014034;28;20034;-82
2021/12/04 13:25:38;;;;;;;23.52;19.60;;;;;;;5.06;97.04;99320.66;5013616;28;20040;-80
2021/12/04 13:30:29;;;;;;;21.13;17.27;;;;;;;4.94;96.56;99301.22;5013752;28;20091;-81
2021/12/04 13:32:54;;;;;;;19.10;17.00;;;;;;;5.00;96.52;99311.38;5030199;28;20586;-83
2021/12/04 13:35:22;;;;;;;23.83;17.50;;;;;;;4.99;96.71;99307.03;5013863;28;20074;-82
2021/12/04 13:37:49;;;;;;;21.52;15.00;;;;;;;5.08;96.77;99316.13;5013460;28;20493;-81
2021/12/04 13:40:17;;;;;;;18.48;16.27;;;;;;;5.09;96.39;99316.06;5013023;28;20069;-83
2021/12/04 13:42:44;;;;;;;17.02;15.23;;;;;;;5.05;96.86;99321.63;5009880;28;20444;-82
2021/12/04 13:45:18;;;;;;;18.40;16.25;;;;;;;4.95;96.53;99297.66;5013260;28;20497;-83
2021/12/04 13:47:51;;;;;;;17.63;14.75;;;;;;;5.11;96.56;99314.16;5013031;28;20041;-83
2021/12/04 13:52:57;;;;;;;16.80;14.68;;;;;;;5.05;96.24;99314.56;5136437;27;20019;-83
2021/12/04 13:55:24;;;;;;;18.30;14.10;;;;;;;5.01;96.66;99305.16;5136429;27;20030;-80
2021/12/04 13:57:51;;;;;;;18.90;14.98;;;;;;;5.11;96.79;99319.41;5135461;27;20034;-84
2021/12/04 14:00:18;;;;;;;18.20;15.60;;;;;;;5.04;97.13;99301.50;5135935;27;20019;-81
2021/12/04 14:02:44;;;;;;;19.08;15.57;;;;;;;5.11;97.13;99308.88;5117444;27;20023;-81
2021/12/04 14:05:13;;;;;;;18.30;14.07;;;;;;;5.14;97.32;99305.19;5136085;27;20389;-81
2021/12/04 14:07:48;;;;;;;17.35;14.98;;;;;;;5.00;97.12;99288.50;5126039;27;20382;-82
2021/12/04 14:10:23;;;;;;;22.98;15.40;;;;;;;5.09;96.87;99299.38;5127706;28;20101;-82
2021/12/04 14:12:49;;;;;;;18.90;16.05;;;;;;;5.15;96.58;99320.94;5134978;27;20023;-81
2021/12/04 14:15:18;;;;;;;19.27;15.77;;;;;;;5.16;96.46;99319.97;5134997;28;20035;-83
2021/12/04 14:17:44;;;;;;;17.88;15.32;;;;;;;5.06;97.30;99299.56;5134560;28;20381;-79
2021/12/04 14:20:13;;;;;;;19.08;16.55;;;;;;;5.17;97.42;99326.91;5134985;28;20016;-79
2021/12/04 14:22:47;;;;;;;17.58;15.32;;;;;;;5.27;96.54;99326.34;5128763;27;20015;-81
2021/12/04 14:25:13;;;;;;;19.23;16.13;;;;;;;5.09;97.29;99304.66;5114652;28;20111;-80
2021/12/04 14:27:39;;;;;;;17.00;15.13;;;;;;;5.13;97.20;99332.50;5127560;28;20023;-79
2021/12/04 14:30:17;;;;;;;19.13;16.08;;;;;;;5.20;96.76;99345.16;5116140;28;20480;-80
2021/12/04 14:32:46;;;;;;;19.27;15.80;;;;;;;5.09;97.32;99334.50;5132440;28;20035;-81
2021/12/04 14:35:15;;;;;;;19.63;15.43;;;;;;;5.12;97.23;99336.94;5134759;28;20023;-81
2021/12/04 14:37:48;;;;;;;17.83;15.02;;;;;;;5.09;97.33;99344.16;5110383;28;20450;-80
2021/12/04 14:40:20;;;;;;;15.10;13.30;;;;;;;5.10;97.18;99352.00;5115430;28;20034;-83
2021/12/04 14:42:46;;;;;;;14.48;12.82;;;;;;;5.10;97.09;99359.06;5129005;28;20028;-82
2021/12/04 14:45:19;;;;;;;17.17;13.02;;;;;;;5.16;97.36;99372.69;5133622;28;20110;-80
2021/12/04 14:48:02;;;;;;;14.35;11.07;;;;;;;5.09;97.00;99366.13;5132176;28;20027;-84
2021/12/04 14:50:28;;;;;;;13.40;11.13;;;;;;;5.08;96.75;99358.31;5133658;28;20035;-83
2021/12/04 14:52:58;;;;;;;11.95;10.40;;;;;;;5.11;96.82;99374.75;5133492;27;20078;-83